createdAt,value
2022-09-20T00:01:33.258Z,13.80
2022-09-20T00:04:02.416Z,13.70
2022-09-20T00:06:31.728Z,13.70
2022-09-20T00:09:01.291Z,13.70
2022-09-20T00:11:32.183Z,13.70
2022-09-20T00:14:01.507Z,13.70
2022-09-20T00:16:34.990Z,13.60
2022-09-20T00:19:04.282Z,13.60
2022-09-20T00:21:34.227Z,13.60
2022-09-20T00:24:02.028Z,13.50
2022-09-20T00:26:29.666Z,13.50
2022-09-20T00:28:58.359Z,13.50
2022-09-20T00:31:26.501Z,13.50
2022-09-20T00:34:13.667Z,13.50
2022-09-20T00:36:41.158Z,13.50
2022-09-20T00:39:12.198Z,13.40
2022-09-20T00:41:39.481Z,13.40
2022-09-20T00:44:44.351Z,13.40
2022-09-20T00:47:39.785Z,13.40
2022-09-20T00:50:37.243Z,13.40
2022-09-20T00:53:15.950Z,13.30
2022-09-20T00:55:57.618Z,13.30
2022-09-20T00:58:28.125Z,13.30
2022-09-20T01:00:57.853Z,13.20
2022-09-20T01:03:31.384Z,13.20
2022-09-20T01:06:03.933Z,13.20
2022-09-20T01:08:32.898Z,13.10
2022-09-20T01:11:01.104Z,13.10
2022-09-20T01:13:28.935Z,13.10
2022-09-20T01:16:00.469Z,13.10
2022-09-20T01:18:30.029Z,13.10
2022-09-20T01:20:59.213Z,13.00
2022-09-20T01:23:45.732Z,13.00
2022-09-20T01:26:37.450Z,13.00
2022-09-20T01:29:11.546Z,12.90
2022-09-20T01:31:49.843Z,12.90
2022-09-20T01:34:46.376Z,12.90
2022-09-20T01:37:33.921Z,12.80
2022-09-20T01:40:28.073Z,12.80
2022-09-20T01:43:06.899Z,12.90
2022-09-20T01:45:34.490Z,12.90
2022-09-20T01:48:16.186Z,13.00
2022-09-20T01:50:55.585Z,13.00
2022-09-20T01:54:09.239Z,13.00
2022-09-20T01:56:58.077Z,13.10
2022-09-20T02:00:03.130Z,13.10
2022-09-20T02:02:45.429Z,13.10
2022-09-20T02:05:42.821Z,13.10
2022-09-20T02:08:29.060Z,13.10
2022-09-20T02:11:08.081Z,13.20
2022-09-20T02:13:41.363Z,13.20
2022-09-20T02:16:30.563Z,13.20
2022-09-20T02:19:33.204Z,13.30
2022-09-20T02:22:26.244Z,13.30
2022-09-20T02:25:12.160Z,13.30
2022-09-20T02:27:58.110Z,13.30
2022-09-20T02:30:40.247Z,13.30
2022-09-20T02:33:42.513Z,13.30
2022-09-20T02:36:32.028Z,13.20
2022-09-20T02:39:11.300Z,13.20
2022-09-20T02:41:46.129Z,13.20
2022-09-20T02:44:29.441Z,13.10
2022-09-20T02:47:12.028Z,13.10
2022-09-20T02:50:10.996Z,13.10
2022-09-20T02:52:59.094Z,13.10
2022-09-20T02:55:47.069Z,13.10
2022-09-20T02:58:47.445Z,13.10
2022-09-20T03:01:36.531Z,13.10
2022-09-20T03:04:57.617Z,13.10
2022-09-20T03:07:51.313Z,13.10
2022-09-20T03:10:43.571Z,13.00
2022-09-20T03:13:15.801Z,13.00
2022-09-20T03:16:20.109Z,13.00
2022-09-20T03:18:53.244Z,12.90
2022-09-20T03:21:48.380Z,12.80
2022-09-20T03:24:29.326Z,12.80
2022-09-20T03:27:15.731Z,12.70
2022-09-20T03:30:03.619Z,12.60
2022-09-20T03:33:02.799Z,12.60
2022-09-20T03:35:54.813Z,12.60
2022-09-20T03:38:40.096Z,12.50
2022-09-20T03:41:26.180Z,12.60
2022-09-20T03:43:56.487Z,12.50
2022-09-20T03:46:45.232Z,12.50
2022-09-20T03:49:51.223Z,12.40
2022-09-20T03:52:43.212Z,12.40
2022-09-20T03:55:16.124Z,12.30
2022-09-20T03:57:56.707Z,12.30
2022-09-20T04:00:38.616Z,12.30
2022-09-20T04:03:26.756Z,12.20
2022-09-20T04:06:14.359Z,12.20
2022-09-20T04:09:22.838Z,12.20
2022-09-20T04:12:27.608Z,12.10
2022-09-20T04:14:55.018Z,12.10
2022-09-20T04:17:38.039Z,12.00
2022-09-20T04:20:23.924Z,12.00
2022-09-20T04:22:55.070Z,12.00
2022-09-20T04:25:35.224Z,12.00
2022-09-20T04:28:13.983Z,12.00
2022-09-20T04:30:46.245Z,12.00
2022-09-20T04:33:29.969Z,12.00
2022-09-20T04:36:24.967Z,11.90
2022-09-20T04:39:09.963Z,12.00
2022-09-20T04:41:58.485Z,12.00
2022-09-20T04:44:38.074Z,11.90
2022-09-20T04:47:43.174Z,11.90
2022-09-20T04:50:37.994Z,11.90
2022-09-20T04:53:39.161Z,11.80
2022-09-20T04:56:27.672Z,11.70
2022-09-20T04:59:07.976Z,11.70
2022-09-20T05:01:38.389Z,11.70
2022-09-20T05:04:37.395Z,11.60
2022-09-20T05:07:37.548Z,11.60
2022-09-20T05:10:04.830Z,11.60
2022-09-20T05:13:12.797Z,11.60
2022-09-20T05:16:02.206Z,11.60
2022-09-20T05:18:35.778Z,11.60
2022-09-20T05:21:23.137Z,11.50
2022-09-20T05:24:16.925Z,11.50
2022-09-20T05:27:10.498Z,11.50
2022-09-20T05:29:49.766Z,11.50
2022-09-20T05:32:36.007Z,11.50
2022-09-20T05:35:06.339Z,11.50
2022-09-20T05:37:33.644Z,11.50
2022-09-20T05:40:42.607Z,11.60
2022-09-20T05:43:20.333Z,11.60
2022-09-20T05:46:05.440Z,11.50
2022-09-20T05:48:55.430Z,11.50
2022-09-20T05:51:53.929Z,11.50
2022-09-20T05:54:58.664Z,11.50
2022-09-20T05:57:40.108Z,11.50
2022-09-20T06:00:14.495Z,11.50
2022-09-20T06:03:02.306Z,11.60
2022-09-20T06:05:57.464Z,11.60
2022-09-20T06:08:41.253Z,11.60
2022-09-20T06:11:29.582Z,11.60
2022-09-20T06:14:20.259Z,11.60
2022-09-20T06:17:19.153Z,11.70
2022-09-20T06:19:59.115Z,11.70
2022-09-20T06:22:32.357Z,11.70
2022-09-20T06:25:08.453Z,11.70
2022-09-20T06:27:47.181Z,11.70
2022-09-20T06:30:24.598Z,11.70
2022-09-20T06:33:08.607Z,11.70
2022-09-20T06:36:24.303Z,11.80
2022-09-20T06:39:31.534Z,11.80
2022-09-20T06:42:00.368Z,11.80
2022-09-20T06:44:27.752Z,11.80
2022-09-20T06:46:55.761Z,11.90
2022-09-20T06:49:29.086Z,11.90
2022-09-20T06:51:57.505Z,11.90
2022-09-20T06:54:27.119Z,12.00
2022-09-20T06:56:54.816Z,12.00
2022-09-20T06:59:22.386Z,12.10
2022-09-20T07:01:49.959Z,12.20
2022-09-20T07:04:17.557Z,12.20
2022-09-20T07:06:44.968Z,12.30
2022-09-20T07:09:12.558Z,12.40
2022-09-20T07:11:39.888Z,12.40
2022-09-20T07:14:08.047Z,12.50
2022-09-20T07:16:36.901Z,12.60
2022-09-20T07:19:06.618Z,12.60
2022-09-20T07:21:34.050Z,12.70
2022-09-20T07:24:02.417Z,12.80
2022-09-20T07:26:31.084Z,12.90
2022-09-20T07:28:59.670Z,12.90
2022-09-20T07:31:29.027Z,13.00
2022-09-20T07:33:56.475Z,13.10
2022-09-20T07:36:24.130Z,13.20
2022-09-20T07:38:53.163Z,13.30
2022-09-20T07:41:22.956Z,13.30
2022-09-20T07:43:51.160Z,13.40
2022-09-20T07:46:22.265Z,13.50
2022-09-20T07:48:50.076Z,13.60
2022-09-20T07:51:17.574Z,13.70
2022-09-20T07:53:44.988Z,13.80
2022-09-20T07:56:16.566Z,13.90
2022-09-20T07:58:48.638Z,14.00
2022-09-20T08:01:20.966Z,14.10
2022-09-20T08:03:48.774Z,14.30
2022-09-20T08:06:16.504Z,14.40
2022-09-20T08:08:44.644Z,14.50
2022-09-20T08:11:14.519Z,14.60
2022-09-20T08:16:41.064Z,14.70
2022-09-20T08:19:09.024Z,14.70
2022-09-20T08:21:38.840Z,14.70
2022-09-20T08:24:06.477Z,14.80
2022-09-20T08:26:35.856Z,14.80
2022-09-20T08:29:05.911Z,14.90
2022-09-20T08:31:36.872Z,15.00
2022-09-20T08:34:06.889Z,15.10
2022-09-20T08:36:37.152Z,15.10
2022-09-20T08:41:56.804Z,15.10
2022-09-20T08:44:45.685Z,15.20
2022-09-20T08:47:29.569Z,15.20
2022-09-20T08:49:59.081Z,15.40
2022-09-20T08:52:37.452Z,15.50
2022-09-20T08:55:17.038Z,15.60
2022-09-20T08:57:49.255Z,15.60
2022-09-20T09:00:19.436Z,15.70
2022-09-20T09:02:47.765Z,15.70
2022-09-20T09:05:43.030Z,15.70
2022-09-20T09:08:41.298Z,15.80
2022-09-20T09:11:14.650Z,15.80
2022-09-20T09:14:06.895Z,15.80
2022-09-20T09:16:37.676Z,15.70
2022-09-20T09:19:34.414Z,15.70
2022-09-20T09:22:05.591Z,15.70
2022-09-20T09:24:32.977Z,15.80
2022-09-20T09:27:19.104Z,15.80
2022-09-20T09:29:52.488Z,15.90
2022-09-20T09:32:31.053Z,16.00
2022-09-20T09:35:24.853Z,16.10
2022-09-20T09:38:02.343Z,16.10
2022-09-20T09:40:31.739Z,16.10
2022-09-20T09:43:01.786Z,16.20
2022-09-20T09:45:38.685Z,16.30
2022-09-20T09:48:27.972Z,16.40
2022-09-20T09:51:15.337Z,16.40
2022-09-20T09:53:44.770Z,16.30
2022-09-20T09:56:27.063Z,16.30
2022-09-20T09:59:15.125Z,16.40
2022-09-20T10:02:04.412Z,16.50
2022-09-20T10:04:50.509Z,16.70
2022-09-20T10:07:55.232Z,16.80
2022-09-20T10:10:34.378Z,16.80
2022-09-20T10:13:20.260Z,16.80
2022-09-20T10:16:17.547Z,16.80
2022-09-20T10:19:02.199Z,16.80
2022-09-20T10:21:48.912Z,16.90
2022-09-20T10:24:30.266Z,16.90
2022-09-20T10:27:05.945Z,16.80
2022-09-20T10:30:09.367Z,16.90
2022-09-20T10:32:51.987Z,16.90
2022-09-20T10:35:35.849Z,16.80
2022-09-20T10:38:13.241Z,16.70
2022-09-20T10:41:31.963Z,16.90
2022-09-20T10:44:35.045Z,17.10
2022-09-20T10:47:25.168Z,17.30
2022-09-20T10:49:58.513Z,17.30
2022-09-20T10:52:44.311Z,17.50
2022-09-20T10:55:33.374Z,17.60
2022-09-20T10:58:04.070Z,17.50
2022-09-20T11:00:50.782Z,17.40
2022-09-20T11:03:20.815Z,17.40
2022-09-20T11:06:00.193Z,17.40
2022-09-20T11:08:33.906Z,17.60
2022-09-20T11:11:20.951Z,17.70
2022-09-20T11:14:14.993Z,17.60
2022-09-20T11:16:59.661Z,17.60
2022-09-20T11:19:31.370Z,17.60
2022-09-20T11:22:19.715Z,17.50
2022-09-20T11:25:04.440Z,17.60
2022-09-20T11:27:35.986Z,17.70
2022-09-20T11:30:15.409Z,17.90
2022-09-20T11:32:54.190Z,18.10
2022-09-20T11:35:29.299Z,18.40
2022-09-20T11:38:19.131Z,18.50
2022-09-20T11:40:55.297Z,18.40
2022-09-20T11:43:25.385Z,18.20
2022-09-20T11:45:57.005Z,18.10
2022-09-20T11:48:29.488Z,18.20
2022-09-20T11:51:18.276Z,18.30
2022-09-20T11:54:12.508Z,18.50
2022-09-20T11:56:40.228Z,18.50
2022-09-20T11:59:23.119Z,18.40
2022-09-20T12:01:56.348Z,18.30
2022-09-20T12:04:32.940Z,18.30
2022-09-20T12:07:23.346Z,18.40
2022-09-20T12:10:02.952Z,18.50
2022-09-20T12:12:41.985Z,18.60
2022-09-20T12:15:56.924Z,18.80
2022-09-20T12:18:38.377Z,18.80
2022-09-20T12:21:18.198Z,18.90
2022-09-20T12:23:47.174Z,18.80
2022-09-20T12:26:21.054Z,18.80
2022-09-20T12:28:53.808Z,18.90
2022-09-20T12:31:32.091Z,19.00
2022-09-20T12:34:05.072Z,18.90
2022-09-20T12:36:55.069Z,18.90
2022-09-20T12:39:32.284Z,19.10
2022-09-20T12:42:04.215Z,19.70
2022-09-20T12:44:40.803Z,20.10
2022-09-20T12:47:22.896Z,20.70
2022-09-20T12:50:10.096Z,20.90
2022-09-20T12:52:58.490Z,21.40
2022-09-20T12:56:02.197Z,21.40
2022-09-20T12:59:00.582Z,21.40
2022-09-20T13:01:31.198Z,21.10
2022-09-20T13:04:44.071Z,20.90
2022-09-20T13:07:43.647Z,20.60
2022-09-20T13:10:25.261Z,20.10
2022-09-20T13:12:57.451Z,19.60
2022-09-20T13:15:25.299Z,19.50
2022-09-20T13:17:56.406Z,19.40
2022-09-20T13:20:28.062Z,19.20
2022-09-20T13:23:00.154Z,19.20
2022-09-20T13:25:28.675Z,19.40
2022-09-20T13:28:21.756Z,19.60
2022-09-20T13:30:49.231Z,19.50
2022-09-20T13:33:22.357Z,19.40
2022-09-20T13:35:54.480Z,19.20
2022-09-20T13:38:26.305Z,18.90
2022-09-20T13:41:00.604Z,18.70
2022-09-20T13:43:39.959Z,18.60
2022-09-20T13:46:19.159Z,18.60
2022-09-20T13:48:47.565Z,18.60
2022-09-20T13:51:26.439Z,18.70
2022-09-20T13:53:54.522Z,19.00
2022-09-20T13:56:26.029Z,19.70
2022-09-20T13:58:54.178Z,20.40
2022-09-20T14:01:34.026Z,20.60
2022-09-20T14:04:07.182Z,20.50
2022-09-20T14:06:35.712Z,20.40
2022-09-20T14:09:10.842Z,20.20
2022-09-20T14:11:40.186Z,20.10
2022-09-20T14:14:10.443Z,20.20
2022-09-20T14:16:49.022Z,20.10
2022-09-20T14:19:18.913Z,19.90
2022-09-20T14:21:47.217Z,19.80
2022-09-20T14:24:14.527Z,19.80
2022-09-20T14:26:46.033Z,19.60
2022-09-20T14:29:34.921Z,19.60
2022-09-20T14:32:18.623Z,19.40
2022-09-20T14:35:13.209Z,19.40
2022-09-20T14:37:57.210Z,19.50
2022-09-20T14:40:30.671Z,19.50
2022-09-20T14:43:04.187Z,19.40
2022-09-20T14:45:35.800Z,19.40
2022-09-20T14:48:12.247Z,19.40
2022-09-20T14:50:43.523Z,19.20
2022-09-20T14:53:10.943Z,19.10
2022-09-20T14:55:41.507Z,19.10
2022-09-20T14:58:14.065Z,19.00
2022-09-20T15:01:05.160Z,19.00
2022-09-20T15:03:43.129Z,19.00
2022-09-20T15:06:12.807Z,18.80
2022-09-20T15:08:44.131Z,18.70
2022-09-20T15:11:18.199Z,18.60
2022-09-20T15:13:45.945Z,18.50
2022-09-20T15:16:17.582Z,18.40
2022-09-20T15:18:45.356Z,18.40
2022-09-20T15:21:12.805Z,18.40
2022-09-20T15:23:40.609Z,18.40
2022-09-20T15:26:10.569Z,18.40
2022-09-20T15:28:38.035Z,18.40
2022-09-20T15:31:05.403Z,18.30
2022-09-20T15:33:33.078Z,18.30
2022-09-20T15:36:02.776Z,18.30
2022-09-20T15:38:30.394Z,18.30
2022-09-20T15:41:03.463Z,18.30
2022-09-20T15:43:31.780Z,18.20
2022-09-20T15:46:21.151Z,18.20
2022-09-20T15:48:48.917Z,18.20
2022-09-20T15:51:16.822Z,18.20
2022-09-20T15:53:56.002Z,18.20
2022-09-20T15:56:25.599Z,18.20
2022-09-20T15:59:01.429Z,18.20
2022-09-20T16:01:32.372Z,18.20
2022-09-20T16:04:00.131Z,18.20
2022-09-20T16:06:27.655Z,18.20
2022-09-20T16:08:55.771Z,18.20
2022-09-20T16:11:23.976Z,18.20
2022-09-20T16:13:55.617Z,18.20
2022-09-20T16:16:24.052Z,18.10
2022-09-20T16:19:10.801Z,18.10
2022-09-20T16:21:40.702Z,18.10
2022-09-20T16:24:12.429Z,18.10
2022-09-20T16:26:40.379Z,18.10
2022-09-20T16:29:08.148Z,18.10
2022-09-20T16:31:41.910Z,18.20
2022-09-20T16:34:17.747Z,18.20
2022-09-20T16:36:55.605Z,18.20
2022-09-20T16:39:27.722Z,18.20
2022-09-20T16:42:06.547Z,18.10
2022-09-20T16:44:36.042Z,18.10
2022-09-20T16:47:08.909Z,18.10
2022-09-20T16:49:37.105Z,18.10
2022-09-20T16:52:05.839Z,18.10
2022-09-20T16:54:33.880Z,18.00
2022-09-20T16:57:01.701Z,18.00
2022-09-20T16:59:29.094Z,18.00
2022-09-20T17:01:56.977Z,18.00
2022-09-20T17:04:24.424Z,18.00
2022-09-20T17:06:52.471Z,17.90
2022-09-20T17:09:19.894Z,17.90
2022-09-20T17:11:50.073Z,17.80
2022-09-20T17:14:19.975Z,17.80
2022-09-20T17:16:48.425Z,17.80
2022-09-20T17:19:18.632Z,17.80
2022-09-20T17:21:50.093Z,17.80
2022-09-20T17:24:19.825Z,17.80
2022-09-20T17:26:48.671Z,17.80
2022-09-20T17:29:17.534Z,17.70
2022-09-20T17:31:53.712Z,17.70
2022-09-20T17:34:22.661Z,17.70
2022-09-20T17:36:50.816Z,17.60
2022-09-20T17:39:18.900Z,17.60
2022-09-20T17:41:48.601Z,17.60
2022-09-20T17:44:16.874Z,17.60
2022-09-20T17:46:46.830Z,17.50
2022-09-20T17:49:16.546Z,17.50
2022-09-20T17:51:45.985Z,17.60
2022-09-20T17:54:14.100Z,17.60
2022-09-20T17:56:43.729Z,17.50
2022-09-20T17:59:12.737Z,17.40
2022-09-20T18:01:40.528Z,17.40
2022-09-20T18:04:09.094Z,17.40
2022-09-20T18:06:44.612Z,17.40
2022-09-20T18:09:15.144Z,17.30
2022-09-20T18:11:48.790Z,17.30
2022-09-20T18:14:20.423Z,17.20
2022-09-20T18:16:48.014Z,17.20
2022-09-20T18:19:16.229Z,17.10
2022-09-20T18:21:44.070Z,17.10
2022-09-20T18:24:12.245Z,17.10
2022-09-20T18:26:40.019Z,17.10
2022-09-20T18:29:12.984Z,17.10
2022-09-20T18:31:46.198Z,17.10
2022-09-20T18:34:17.950Z,17.10
2022-09-20T18:36:56.387Z,17.00
2022-09-20T18:39:34.912Z,17.10
2022-09-20T18:42:03.295Z,17.00
2022-09-20T18:44:33.724Z,17.00
2022-09-20T18:47:02.746Z,17.00
2022-09-20T18:49:32.534Z,17.00
2022-09-20T18:51:59.975Z,17.10
2022-09-20T18:54:30.468Z,17.00
2022-09-20T18:56:58.290Z,17.00
2022-09-20T18:59:27.458Z,16.90
2022-09-20T19:02:09.689Z,16.90
2022-09-20T19:04:51.842Z,16.80
2022-09-20T19:07:28.470Z,16.80
2022-09-20T19:10:40.306Z,16.80
2022-09-20T19:13:13.169Z,16.80
2022-09-20T19:15:52.224Z,16.80
2022-09-20T19:18:50.908Z,16.70
2022-09-20T19:21:42.582Z,16.70
2022-09-20T19:24:19.136Z,16.60
2022-09-20T19:26:46.733Z,16.60
2022-09-20T19:29:22.070Z,16.60
2022-09-20T19:31:51.346Z,16.60
2022-09-20T19:34:24.982Z,16.60
2022-09-20T19:36:52.280Z,16.60
2022-09-20T19:39:32.947Z,16.60
2022-09-20T19:42:36.159Z,16.50
2022-09-20T19:45:22.223Z,16.40
2022-09-20T19:48:00.846Z,16.40
2022-09-20T19:50:39.865Z,16.40
2022-09-20T19:53:09.279Z,16.40
2022-09-20T19:55:37.137Z,16.40
2022-09-20T19:58:04.922Z,16.40
2022-09-20T20:00:32.971Z,16.30
2022-09-20T20:03:00.694Z,16.30
2022-09-20T20:05:29.200Z,16.40
2022-09-20T20:08:22.184Z,16.40
2022-09-20T20:11:23.648Z,16.30
2022-09-20T20:14:02.688Z,16.30
2022-09-20T20:17:01.806Z,16.30
2022-09-20T20:19:51.476Z,16.30
2022-09-20T20:22:53.648Z,16.30
2022-09-20T20:25:34.879Z,16.30
2022-09-20T20:28:02.374Z,16.30
2022-09-20T20:30:29.774Z,16.30
2022-09-20T20:33:00.649Z,16.30
2022-09-20T20:35:28.011Z,16.20
2022-09-20T20:37:55.405Z,16.20
2022-09-20T20:40:22.922Z,16.20
2022-09-20T20:43:02.255Z,16.20
2022-09-20T20:45:30.519Z,16.20
2022-09-20T20:47:58.882Z,16.20
2022-09-20T20:50:28.044Z,16.20
2022-09-20T20:52:57.191Z,16.10
2022-09-20T20:55:24.965Z,16.20
2022-09-20T20:57:58.176Z,16.10
2022-09-20T21:00:27.468Z,16.10
2022-09-20T21:03:03.149Z,16.10
2022-09-20T21:05:30.933Z,16.10
2022-09-20T21:07:58.564Z,16.10
2022-09-20T21:10:26.109Z,16.10
2022-09-20T21:12:56.377Z,16.10
2022-09-20T21:15:23.761Z,16.10
2022-09-20T21:17:52.768Z,16.10
2022-09-20T21:20:21.589Z,16.10
2022-09-20T21:22:49.006Z,16.10
2022-09-20T21:25:16.466Z,16.10
2022-09-20T21:27:43.809Z,16.20
2022-09-20T21:30:11.892Z,16.10
2022-09-20T21:32:39.260Z,16.10
2022-09-20T21:35:07.018Z,16.10
2022-09-20T21:37:34.423Z,16.10
2022-09-20T21:40:02.280Z,16.10
2022-09-20T21:42:29.899Z,16.10
2022-09-20T21:44:57.312Z,16.10
2022-09-20T21:47:24.690Z,16.10
2022-09-20T21:49:52.217Z,16.10
2022-09-20T21:52:19.585Z,16.10
2022-09-20T21:54:46.977Z,16.20
2022-09-20T21:57:15.153Z,16.30
2022-09-20T21:59:42.803Z,16.30
2022-09-20T22:02:10.402Z,16.20
2022-09-20T22:04:37.988Z,16.20
2022-09-20T22:07:05.456Z,16.20
2022-09-20T22:09:32.924Z,16.20
2022-09-20T22:12:00.893Z,16.20
2022-09-20T22:14:28.501Z,16.10
2022-09-20T22:16:55.883Z,16.20
2022-09-20T22:19:24.548Z,16.10
2022-09-20T22:21:52.087Z,16.10
2022-09-20T22:24:19.831Z,16.00
2022-09-20T22:26:50.073Z,16.10
2022-09-20T22:29:18.271Z,16.00
2022-09-20T22:31:47.697Z,16.10
2022-09-20T22:34:17.470Z,16.00
2022-09-20T22:36:45.727Z,16.00
2022-09-20T22:39:14.497Z,16.00
2022-09-20T22:41:43.023Z,16.00
2022-09-20T22:44:11.397Z,16.00
2022-09-20T22:46:39.402Z,16.00
2022-09-20T22:49:09.528Z,16.00
2022-09-20T22:51:37.967Z,16.00
2022-09-20T22:54:08.361Z,16.00
2022-09-20T22:56:39.204Z,16.00
2022-09-20T22:59:10.386Z,16.00
2022-09-20T23:01:43.977Z,16.00
2022-09-20T23:04:14.639Z,16.00
2022-09-20T23:06:55.061Z,16.00
2022-09-20T23:09:25.155Z,16.00
2022-09-20T23:11:52.829Z,16.00
2022-09-20T23:14:21.785Z,16.00
2022-09-20T23:16:49.742Z,16.00
2022-09-20T23:19:17.909Z,16.00
2022-09-20T23:21:45.614Z,16.00
2022-09-20T23:24:14.512Z,16.10
2022-09-20T23:26:43.236Z,16.00
2022-09-20T23:29:13.473Z,16.00
2022-09-20T23:31:45.908Z,16.00
2022-09-20T23:34:15.360Z,16.00
2022-09-20T23:36:43.743Z,16.00
2022-09-20T23:39:12.169Z,16.00
2022-09-20T23:41:41.223Z,16.00
2022-09-20T23:44:10.371Z,15.90
2022-09-20T23:46:38.663Z,15.90
2022-09-20T23:49:07.165Z,15.90
2022-09-20T23:51:35.576Z,15.90
2022-09-20T23:54:03.898Z,15.90
2022-09-20T23:56:31.872Z,15.90
2022-09-20T23:58:59.416Z,15.80
